createdAt,value
2019-02-24T00:00:07.574Z,58.13
2019-02-24T00:02:36.248Z,58.38
2019-02-24T00:05:06.418Z,58.44
2019-02-24T00:07:35.093Z,58.82
2019-02-24T00:10:04.454Z,58.62
2019-02-24T00:12:33.127Z,58.71
2019-02-24T00:15:01.786Z,61.09
2019-02-24T00:17:30.512Z,60.81
2019-02-24T00:19:59.168Z,59.32
2019-02-24T00:22:27.822Z,59.14
2019-02-24T00:24:57.396Z,59.16
2019-02-24T00:27:26.059Z,60.86
2019-02-24T00:29:54.720Z,60.36
2019-02-24T00:32:23.385Z,59.90
2019-02-24T00:34:52.110Z,59.95
2019-02-24T00:37:20.810Z,59.76
2019-02-24T00:39:49.447Z,60.10
2019-02-24T00:42:18.127Z,60.90
2019-02-24T00:44:46.779Z,61.64
2019-02-24T00:47:15.451Z,61.23
2019-02-24T00:49:44.114Z,61.35
2019-02-24T00:52:12.783Z,60.49
2019-02-24T00:54:41.448Z,59.75
2019-02-24T00:57:10.108Z,59.79
2019-02-24T00:59:38.772Z,60.28
2019-02-24T01:02:07.432Z,61.09
2019-02-24T01:04:36.128Z,60.93
2019-02-24T01:07:04.793Z,60.23
2019-02-24T01:09:33.458Z,59.44
2019-02-24T01:12:02.124Z,61.56
2019-02-24T01:14:30.786Z,59.90
2019-02-24T01:16:59.473Z,60.25
2019-02-24T01:19:28.134Z,59.98
2019-02-24T01:21:56.798Z,61.70
2019-02-24T01:24:25.505Z,62.80
2019-02-24T01:26:54.187Z,61.61
2019-02-24T01:29:22.837Z,61.17
2019-02-24T01:31:51.506Z,60.22
2019-02-24T01:34:20.185Z,60.05
2019-02-24T01:36:48.871Z,60.50
2019-02-24T01:39:17.549Z,60.00
2019-02-24T01:41:46.286Z,60.71
2019-02-24T01:44:14.951Z,62.26
2019-02-24T01:46:43.660Z,60.45
2019-02-24T01:49:12.357Z,60.47
2019-02-24T01:51:41.022Z,60.87
2019-02-24T01:54:09.694Z,61.35
2019-02-24T01:56:38.373Z,61.67
2019-02-24T01:59:07.045Z,61.53
2019-02-24T02:01:35.703Z,59.80
2019-02-24T02:04:04.388Z,61.17
2019-02-24T02:06:33.153Z,59.76
2019-02-24T02:09:01.819Z,59.82
2019-02-24T02:11:30.507Z,60.15
2019-02-24T02:13:59.237Z,60.89
2019-02-24T02:16:27.892Z,60.10
2019-02-24T02:18:56.554Z,59.95
2019-02-24T02:21:25.230Z,60.51
2019-02-24T02:23:53.892Z,60.66
2019-02-24T02:26:22.572Z,60.06
2019-02-24T02:28:51.255Z,61.72
2019-02-24T02:31:19.934Z,60.33
2019-02-24T02:33:48.610Z,60.26
2019-02-24T02:36:17.259Z,59.12
2019-02-24T02:38:45.948Z,59.33
2019-02-24T02:41:14.610Z,59.86
2019-02-24T02:43:43.274Z,59.60
2019-02-24T02:46:11.934Z,59.69
2019-02-24T02:48:40.628Z,59.57
2019-02-24T02:51:09.573Z,59.82
2019-02-24T02:53:38.299Z,60.40
2019-02-24T02:56:06.954Z,61.17
2019-02-24T02:58:35.623Z,60.67
2019-02-24T03:01:04.289Z,59.84
2019-02-24T03:03:32.961Z,59.98
2019-02-24T03:06:03.203Z,60.04
2019-02-24T03:08:48.518Z,59.45
2019-02-24T03:11:17.494Z,60.60
2019-02-24T03:13:46.171Z,60.02
2019-02-24T03:16:16.413Z,59.72
2019-02-24T03:18:45.118Z,59.71
2019-02-24T03:21:13.770Z,59.17
2019-02-24T03:23:42.445Z,59.13
2019-02-24T03:26:11.101Z,59.46
2019-02-24T03:28:39.775Z,59.42
2019-02-24T03:31:08.497Z,59.77
2019-02-24T03:33:37.139Z,60.34
2019-02-24T03:36:05.802Z,60.55
2019-02-24T03:38:34.462Z,59.93
2019-02-24T03:41:03.127Z,59.47
2019-02-24T03:43:31.839Z,59.25
2019-02-24T03:46:00.506Z,59.33
2019-02-24T03:48:29.179Z,58.81
2019-02-24T03:50:57.842Z,59.48
2019-02-24T03:53:26.567Z,61.54
2019-02-24T03:55:57.543Z,58.98
2019-02-24T03:58:25.710Z,59.74
2019-02-24T04:00:54.376Z,58.97
2019-02-24T04:03:23.049Z,58.27
2019-02-24T04:05:51.734Z,59.15
2019-02-24T04:08:20.402Z,57.96
2019-02-24T04:10:49.100Z,58.17
2019-02-24T04:13:17.777Z,58.82
2019-02-24T04:15:46.584Z,58.88
2019-02-24T04:18:15.250Z,58.28
2019-02-24T04:20:43.921Z,58.20
2019-02-24T04:23:12.597Z,58.42
2019-02-24T04:25:41.261Z,59.11
2019-02-24T04:28:09.948Z,58.66
2019-02-24T04:30:38.613Z,58.20
2019-02-24T04:33:07.287Z,58.20
2019-02-24T04:35:35.933Z,58.15
2019-02-24T04:38:04.699Z,58.64
2019-02-24T04:40:33.384Z,61.14
2019-02-24T04:43:02.043Z,59.88
2019-02-24T04:45:30.731Z,59.59
2019-02-24T04:47:59.393Z,59.35
2019-02-24T04:50:28.062Z,59.13
2019-02-24T04:52:56.751Z,56.25
2019-02-24T04:55:25.412Z,57.50
2019-02-24T04:57:54.086Z,58.06
2019-02-24T05:00:22.753Z,59.60
2019-02-24T05:02:51.410Z,59.66
2019-02-24T05:05:20.077Z,60.40
2019-02-24T05:07:48.825Z,60.21
2019-02-24T05:10:17.499Z,60.36
2019-02-24T05:12:46.170Z,59.52
2019-02-24T05:15:14.842Z,60.94
2019-02-24T05:17:43.510Z,60.11
2019-02-24T05:20:12.173Z,59.12
2019-02-24T05:22:40.837Z,60.04
2019-02-24T05:25:09.513Z,60.06
2019-02-24T05:27:38.180Z,60.65
2019-02-24T05:30:07.114Z,60.51
2019-02-24T05:32:35.762Z,59.28
2019-02-24T05:35:05.029Z,58.58
2019-02-24T05:37:33.689Z,58.50
2019-02-24T05:40:02.351Z,58.88
2019-02-24T05:42:31.023Z,58.64
2019-02-24T05:44:59.761Z,59.26
2019-02-24T05:47:28.408Z,57.08
2019-02-24T05:49:57.074Z,57.27
2019-02-24T05:52:25.741Z,56.26
2019-02-24T05:54:54.400Z,54.78
2019-02-24T05:57:23.075Z,54.92
2019-02-24T05:59:55.380Z,55.42
2019-02-24T06:02:22.183Z,55.69
2019-02-24T06:04:50.847Z,55.99
2019-02-24T06:07:19.621Z,56.51
2019-02-24T06:09:48.290Z,56.22
2019-02-24T06:12:16.970Z,56.70
2019-02-24T06:14:45.664Z,56.58
2019-02-24T06:17:14.329Z,56.23
2019-02-24T06:19:42.994Z,55.87
2019-02-24T06:22:11.665Z,54.46
2019-02-24T06:24:40.335Z,53.93
2019-02-24T06:27:09.024Z,53.25
2019-02-24T06:29:37.744Z,53.29
2019-02-24T06:32:06.402Z,53.39
2019-02-24T06:34:35.111Z,53.44
2019-02-24T06:37:03.788Z,54.81
2019-02-24T06:39:32.464Z,53.81
2019-02-24T06:42:01.144Z,53.08
2019-02-24T06:44:29.798Z,53.46
2019-02-24T06:46:58.568Z,53.47
2019-02-24T06:49:27.255Z,54.43
2019-02-24T06:51:56.127Z,53.87
2019-02-24T06:54:24.758Z,53.48
2019-02-24T06:56:53.429Z,52.05
2019-02-24T06:59:22.103Z,52.09
2019-02-24T07:01:50.752Z,51.18
2019-02-24T07:04:19.427Z,51.29
2019-02-24T07:06:48.107Z,50.34
2019-02-24T07:09:16.769Z,49.59
2019-02-24T07:11:45.440Z,49.52
2019-02-24T07:14:14.120Z,48.67
2019-02-24T07:16:42.843Z,48.76
2019-02-24T07:19:11.553Z,47.12
2019-02-24T07:21:40.194Z,40.23
2019-02-24T07:24:08.906Z,39.66
2019-02-24T07:26:37.555Z,41.65
2019-02-24T07:29:06.219Z,42.33
2019-02-24T07:31:34.880Z,43.97
2019-02-24T07:34:03.548Z,43.68
2019-02-24T07:36:32.229Z,44.23
2019-02-24T07:39:00.955Z,41.06
2019-02-24T07:41:29.625Z,37.09
2019-02-24T07:43:58.285Z,34.71
2019-02-24T07:46:26.952Z,32.52
2019-02-24T07:48:55.658Z,32.03
2019-02-24T07:51:24.335Z,28.99
2019-02-24T07:53:53.014Z,27.17
2019-02-24T07:56:21.681Z,26.01
2019-02-24T07:58:50.372Z,25.15
2019-02-24T08:01:19.038Z,24.78
2019-02-24T08:03:47.699Z,22.44
2019-02-24T08:06:16.372Z,25.80
2019-02-24T08:08:45.033Z,29.69
2019-02-24T08:11:13.685Z,32.00
2019-02-24T08:13:44.048Z,34.09
2019-02-24T08:16:12.808Z,36.39
2019-02-24T08:18:49.254Z,38.17
2019-02-24T08:21:11.863Z,39.24
2019-02-24T08:23:40.564Z,40.43
2019-02-24T08:26:09.222Z,40.47
2019-02-24T08:28:37.882Z,41.26
2019-02-24T08:31:06.547Z,41.96
2019-02-24T08:33:35.220Z,43.17
2019-02-24T08:36:03.893Z,42.43
2019-02-24T08:38:32.559Z,41.06
2019-02-24T08:41:01.230Z,37.82
2019-02-24T08:43:29.933Z,30.79
2019-02-24T08:45:58.571Z,26.08
2019-02-24T08:48:27.259Z,22.19
2019-02-24T08:50:55.923Z,20.53
2019-02-24T08:53:24.650Z,19.39
2019-02-24T08:55:53.319Z,18.29
2019-02-24T08:58:21.979Z,20.31
2019-02-24T09:00:51.382Z,21.59
2019-02-24T09:03:20.198Z,19.43
2019-02-24T09:05:48.853Z,20.52
2019-02-24T09:08:17.523Z,21.15
2019-02-24T09:10:46.217Z,21.58
2019-02-24T09:13:14.853Z,18.47
2019-02-24T09:15:43.524Z,18.57
2019-02-24T09:18:12.184Z,18.18
2019-02-24T09:20:40.925Z,16.56
2019-02-24T09:23:09.579Z,17.43
2019-02-24T09:25:38.256Z,17.04
2019-02-24T09:28:06.928Z,15.93
2019-02-24T09:30:35.591Z,16.28
2019-02-24T09:33:04.296Z,17.49
2019-02-24T09:35:32.953Z,16.48
2019-02-24T09:38:01.628Z,16.47
2019-02-24T09:40:30.298Z,15.17
2019-02-24T09:42:58.954Z,16.00
2019-02-24T09:45:27.626Z,16.18
2019-02-24T09:47:56.309Z,15.44
2019-02-24T09:50:24.996Z,15.10
2019-02-24T09:52:53.668Z,14.22
2019-02-24T09:55:22.323Z,15.49
2019-02-24T09:57:50.983Z,14.52
2019-02-24T10:00:21.862Z,14.07
2019-02-24T10:02:50.050Z,13.35
2019-02-24T10:05:18.789Z,13.29
2019-02-24T10:07:47.464Z,14.46
2019-02-24T10:10:16.129Z,16.89
2019-02-24T10:12:44.808Z,17.54
2019-02-24T10:15:15.142Z,16.21
2019-02-24T10:17:43.820Z,15.09
2019-02-24T10:20:13.095Z,14.79
2019-02-24T10:22:41.754Z,13.57
2019-02-24T10:25:10.746Z,12.96
2019-02-24T10:27:39.389Z,12.64
2019-02-24T10:30:13.650Z,13.79
2019-02-24T10:32:42.306Z,14.34
2019-02-24T10:35:10.988Z,14.00
2019-02-24T10:37:39.655Z,13.00
2019-02-24T10:40:16.182Z,11.86
2019-02-24T10:42:44.879Z,11.80
2019-02-24T10:45:18.043Z,12.39
2019-02-24T10:47:46.731Z,11.79
2019-02-24T10:50:16.298Z,11.28
2019-02-24T10:52:44.960Z,12.16
2019-02-24T10:55:13.736Z,11.46
2019-02-24T10:57:42.396Z,11.47
2019-02-24T11:00:21.258Z,11.98
2019-02-24T11:02:49.936Z,11.62
2019-02-24T11:05:18.607Z,12.11
2019-02-24T11:07:47.289Z,13.04
2019-02-24T11:10:15.946Z,11.76
2019-02-24T11:12:44.615Z,11.37
2019-02-24T11:15:13.883Z,11.56
2019-02-24T11:17:42.548Z,12.55
2019-02-24T11:20:13.415Z,12.52
2019-02-24T11:22:42.074Z,11.44
2019-02-24T11:25:11.693Z,12.95
2019-02-24T11:27:40.407Z,12.62
2019-02-24T11:30:14.266Z,12.40
2019-02-24T11:32:43.028Z,12.26
2019-02-24T11:35:12.402Z,13.69
2019-02-24T11:37:41.066Z,13.72
2019-02-24T11:40:17.537Z,15.03
2019-02-24T11:42:46.278Z,14.67
2019-02-24T11:45:14.918Z,15.08
2019-02-24T11:47:43.585Z,15.73
2019-02-24T11:50:13.043Z,16.50
2019-02-24T11:52:41.754Z,15.57
2019-02-24T11:55:11.079Z,15.83
2019-02-24T11:57:39.834Z,16.48
2019-02-24T12:00:11.754Z,15.35
2019-02-24T12:02:41.802Z,15.38
2019-02-24T12:05:11.127Z,15.72
2019-02-24T12:07:39.812Z,16.88
2019-02-24T12:10:12.284Z,19.20
2019-02-24T12:12:40.943Z,19.93
2019-02-24T12:15:14.318Z,21.81
2019-02-24T12:17:43.105Z,23.49
2019-02-24T12:20:13.546Z,24.28
2019-02-24T12:22:42.205Z,23.90
2019-02-24T12:25:11.675Z,24.22
2019-02-24T12:27:40.329Z,24.96
2019-02-24T12:30:16.025Z,24.79
2019-02-24T12:32:44.693Z,23.76
2019-02-24T12:35:13.354Z,23.94
2019-02-24T12:37:42.025Z,24.39
2019-02-24T12:40:14.578Z,24.11
2019-02-24T12:42:43.242Z,25.13
2019-02-24T12:45:12.186Z,25.67
2019-02-24T12:47:40.844Z,25.01
2019-02-24T12:50:11.886Z,25.55
2019-02-24T12:52:40.544Z,25.66
2019-02-24T12:55:10.112Z,25.83
2019-02-24T12:57:39.069Z,26.87
2019-02-24T13:00:11.556Z,27.26
2019-02-24T13:02:40.213Z,27.46
2019-02-24T13:05:08.874Z,26.78
2019-02-24T13:07:37.533Z,27.35
2019-02-24T13:10:09.395Z,29.23
2019-02-24T13:12:38.081Z,29.99
2019-02-24T13:15:06.940Z,31.38
2019-02-24T13:17:35.605Z,35.05
2019-02-24T13:20:05.801Z,37.39
2019-02-24T13:22:34.595Z,37.56
2019-02-24T13:25:03.258Z,37.92
2019-02-24T13:27:31.942Z,38.54
2019-02-24T13:30:00.607Z,39.00
2019-02-24T13:32:29.271Z,39.56
2019-02-24T13:34:57.959Z,39.75
2019-02-24T13:37:26.647Z,39.85
2019-02-24T13:39:55.309Z,39.88
2019-02-24T13:42:24.002Z,40.36
2019-02-24T13:44:52.704Z,39.97
2019-02-24T13:47:21.352Z,40.33
2019-02-24T13:49:50.022Z,40.21
2019-02-24T13:52:18.684Z,40.32
2019-02-24T13:54:47.339Z,40.56
2019-02-24T13:57:15.996Z,41.50
2019-02-24T13:59:44.655Z,41.35
2019-02-24T14:02:13.329Z,41.40
2019-02-24T14:04:42.028Z,40.78
2019-02-24T14:07:10.683Z,41.21
2019-02-24T14:09:39.371Z,42.47
2019-02-24T14:12:08.041Z,41.98
2019-02-24T14:14:36.697Z,41.44
2019-02-24T14:17:05.369Z,41.48
2019-02-24T14:19:34.036Z,41.64
2019-02-24T14:22:02.720Z,42.92
2019-02-24T14:24:31.379Z,43.54
2019-02-24T14:27:00.078Z,42.66
2019-02-24T14:29:28.746Z,43.04
2019-02-24T14:31:57.446Z,42.85
2019-02-24T14:34:26.106Z,43.01
2019-02-24T14:36:54.786Z,42.88
2019-02-24T14:39:23.450Z,42.53
2019-02-24T14:41:52.130Z,43.40
2019-02-24T14:44:20.786Z,43.61
2019-02-24T14:46:49.472Z,43.94
2019-02-24T14:49:18.143Z,43.96
2019-02-24T14:51:46.828Z,45.44
2019-02-24T14:54:15.538Z,45.40
2019-02-24T14:56:44.204Z,44.54
2019-02-24T14:59:12.878Z,45.52
2019-02-24T15:01:41.546Z,45.42
2019-02-24T15:04:10.202Z,45.95
2019-02-24T15:06:38.869Z,46.44
2019-02-24T15:09:07.938Z,45.35
2019-02-24T15:11:36.599Z,45.08
2019-02-24T15:14:05.271Z,46.10
2019-02-24T15:16:33.975Z,45.88
2019-02-24T15:19:02.606Z,46.27
2019-02-24T15:21:31.308Z,46.17
2019-02-24T15:23:59.979Z,46.69
2019-02-24T15:26:29.309Z,47.38
2019-02-24T15:28:58.091Z,47.69
2019-02-24T15:31:26.758Z,47.25
2019-02-24T15:33:55.426Z,46.44
2019-02-24T15:36:24.085Z,46.92
2019-02-24T15:38:52.782Z,47.05
2019-02-24T15:41:29.566Z,47.62
2019-02-24T15:43:51.903Z,47.64
2019-02-24T15:46:20.570Z,48.45
2019-02-24T15:48:49.243Z,48.59
2019-02-24T15:51:17.917Z,48.63
2019-02-24T15:53:46.696Z,48.85
2019-02-24T15:56:15.375Z,49.07
2019-02-24T15:58:44.077Z,48.05
2019-02-24T16:01:12.743Z,48.49
2019-02-24T16:03:41.416Z,48.46
2019-02-24T16:06:10.090Z,48.52
2019-02-24T16:08:38.766Z,48.82
2019-02-24T16:11:07.457Z,50.39
2019-02-24T16:13:36.116Z,49.62
2019-02-24T16:16:04.789Z,49.73
2019-02-24T16:18:33.489Z,50.25
2019-02-24T16:21:02.120Z,50.90
2019-02-24T16:23:30.798Z,51.07
2019-02-24T16:25:59.466Z,51.21
2019-02-24T16:28:28.202Z,50.94
2019-02-24T16:30:56.876Z,51.68
2019-02-24T16:33:25.581Z,52.78
2019-02-24T16:35:54.254Z,52.53
2019-02-24T16:38:22.905Z,51.87
2019-02-24T16:40:51.576Z,51.18
2019-02-24T16:43:20.258Z,51.48
2019-02-24T16:45:48.936Z,52.54
2019-02-24T16:48:17.616Z,52.32
2019-02-24T16:50:46.282Z,52.23
2019-02-24T16:53:14.954Z,52.04
2019-02-24T16:55:43.615Z,51.23
2019-02-24T16:58:12.322Z,51.48
2019-02-24T17:00:41.133Z,52.94
2019-02-24T17:03:09.796Z,52.51
2019-02-24T17:05:38.662Z,51.81
2019-02-24T17:08:07.340Z,53.24
2019-02-24T17:10:36.131Z,52.42
2019-02-24T17:13:04.815Z,52.80
2019-02-24T17:15:33.535Z,53.14
2019-02-24T17:18:02.204Z,53.21
2019-02-24T17:20:31.269Z,53.68
2019-02-24T17:22:59.976Z,53.55
2019-02-24T17:25:28.709Z,54.16
2019-02-24T17:27:57.385Z,54.63
2019-02-24T17:30:26.139Z,54.45
2019-02-24T17:32:54.855Z,54.45
2019-02-24T17:35:23.534Z,54.26
2019-02-24T17:37:52.221Z,54.56
2019-02-24T17:40:23.866Z,54.89
2019-02-24T17:42:52.535Z,54.66
2019-02-24T17:45:21.212Z,54.90
2019-02-24T17:47:49.915Z,55.35
2019-02-24T17:50:18.795Z,55.09
2019-02-24T17:52:47.465Z,54.96
2019-02-24T17:55:17.158Z,55.79
2019-02-24T17:57:45.828Z,54.93
2019-02-24T18:00:33.011Z,55.70
2019-02-24T18:03:01.680Z,56.74
2019-02-24T18:05:30.456Z,54.49
2019-02-24T18:07:59.159Z,55.24
2019-02-24T18:10:27.790Z,55.02
2019-02-24T18:12:56.459Z,54.25
2019-02-24T18:15:25.173Z,55.09
2019-02-24T18:17:53.861Z,55.58
2019-02-24T18:20:23.030Z,55.00
2019-02-24T18:22:51.714Z,54.04
2019-02-24T18:25:20.395Z,54.77
2019-02-24T18:27:49.181Z,55.55
2019-02-24T18:30:26.262Z,55.30
2019-02-24T18:32:54.941Z,55.06
2019-02-24T18:35:23.612Z,55.21
2019-02-24T18:37:52.304Z,55.92
2019-02-24T18:40:20.993Z,55.10
2019-02-24T18:42:49.668Z,55.33
2019-02-24T18:45:18.355Z,55.11
2019-02-24T18:47:47.034Z,55.28
2019-02-24T18:50:16.714Z,54.74
2019-02-24T18:52:45.394Z,54.85
2019-02-24T18:55:14.272Z,54.80
2019-02-24T18:57:42.948Z,55.16
2019-02-24T19:00:22.113Z,55.36
2019-02-24T19:02:50.788Z,54.30
2019-02-24T19:05:19.475Z,54.66
2019-02-24T19:07:48.134Z,54.97
2019-02-24T19:10:23.705Z,55.87
2019-02-24T19:12:52.389Z,55.76
2019-02-24T19:15:23.606Z,55.84
2019-02-24T19:17:52.291Z,55.93
2019-02-24T19:20:22.184Z,56.77
2019-02-24T19:22:50.955Z,57.28
2019-02-24T19:25:19.616Z,56.07
2019-02-24T19:27:48.301Z,55.82
2019-02-24T19:30:20.642Z,55.37
2019-02-24T19:32:49.336Z,55.29
2019-02-24T19:35:19.417Z,55.67
2019-02-24T19:37:48.104Z,55.36
2019-02-24T19:40:21.780Z,55.15
2019-02-24T19:42:50.464Z,55.49
2019-02-24T19:45:20.955Z,55.96
2019-02-24T19:47:49.727Z,56.44
2019-02-24T19:50:18.822Z,56.47
2019-02-24T19:52:47.502Z,56.46
2019-02-24T19:55:17.097Z,57.24
2019-02-24T19:57:45.827Z,56.74
2019-02-24T20:00:19.995Z,56.62
2019-02-24T20:02:48.661Z,56.49
2019-02-24T20:05:17.355Z,56.66
2019-02-24T20:07:46.042Z,55.81
2019-02-24T20:10:26.602Z,54.72
2019-02-24T20:12:55.276Z,54.26
2019-02-24T20:15:23.944Z,54.85
2019-02-24T20:17:52.663Z,55.03
2019-02-24T20:20:21.278Z,55.25
2019-02-24T20:22:50.012Z,54.59
2019-02-24T20:25:22.757Z,55.52
2019-02-24T20:27:51.430Z,55.04
2019-02-24T20:30:23.031Z,54.75
2019-02-24T20:32:51.707Z,55.34
2019-02-24T20:35:20.496Z,55.84
2019-02-24T20:37:49.207Z,56.81
2019-02-24T20:40:17.881Z,57.43
2019-02-24T20:42:46.558Z,57.10
2019-02-24T20:45:17.440Z,57.99
2019-02-24T20:47:46.213Z,56.95
2019-02-24T20:50:17.461Z,57.22
2019-02-24T20:52:46.133Z,57.42
2019-02-24T20:55:14.839Z,57.93
2019-02-24T20:57:43.525Z,58.51
2019-02-24T21:00:44.211Z,59.36
2019-02-24T21:03:12.883Z,59.87
2019-02-24T21:05:41.561Z,60.17
2019-02-24T21:08:10.246Z,59.45
2019-02-24T21:10:38.919Z,58.80
2019-02-24T21:13:07.594Z,57.62
2019-02-24T21:15:36.271Z,58.69
2019-02-24T21:18:05.245Z,58.53
2019-02-24T21:20:34.699Z,57.90
2019-02-24T21:23:03.364Z,58.26
2019-02-24T21:25:32.058Z,58.58
2019-02-24T21:28:00.730Z,58.86
2019-02-24T21:30:29.418Z,59.34
2019-02-24T21:32:58.177Z,59.55
2019-02-24T21:35:26.945Z,59.67
2019-02-24T21:37:55.625Z,60.25
2019-02-24T21:40:24.306Z,59.13
2019-02-24T21:42:52.974Z,58.15
2019-02-24T21:45:26.378Z,58.12
2019-02-24T21:47:55.042Z,57.40
2019-02-24T21:50:23.715Z,58.90
2019-02-24T21:52:52.496Z,57.99
2019-02-24T21:55:21.191Z,58.93
2019-02-24T21:57:49.857Z,58.80
2019-02-24T22:00:26.661Z,59.49
2019-02-24T22:02:55.328Z,60.31
2019-02-24T22:05:24.000Z,60.40
2019-02-24T22:07:52.684Z,60.64
2019-02-24T22:10:21.354Z,60.99
2019-02-24T22:12:50.027Z,60.90
2019-02-24T22:15:21.335Z,60.82
2019-02-24T22:17:50.017Z,61.06
2019-02-24T22:20:18.709Z,61.00
2019-02-24T22:22:47.414Z,61.93
2019-02-24T22:25:16.393Z,61.04
2019-02-24T22:27:45.165Z,59.75
2019-02-24T22:30:16.020Z,60.46
2019-02-24T22:32:44.805Z,60.71
2019-02-24T22:35:13.488Z,60.70
2019-02-24T22:37:42.171Z,60.74
2019-02-24T22:40:12.437Z,61.09
2019-02-24T22:42:42.018Z,61.50
2019-02-24T22:45:21.443Z,61.67
2019-02-24T22:47:50.243Z,61.81
2019-02-24T22:50:18.931Z,62.40
2019-02-24T22:52:47.613Z,62.44
2019-02-24T22:55:18.373Z,62.54
2019-02-24T22:57:47.145Z,62.78
2019-02-24T23:00:36.822Z,62.98
2019-02-24T23:03:05.905Z,62.81
2019-02-24T23:05:34.581Z,62.94
2019-02-24T23:08:03.259Z,63.40
2019-02-24T23:10:31.969Z,64.10
2019-02-24T23:13:00.640Z,64.03
2019-02-24T23:15:29.314Z,63.45
2019-02-24T23:17:57.988Z,63.10
2019-02-24T23:20:26.782Z,62.79
2019-02-24T23:22:55.460Z,62.74
2019-02-24T23:25:24.126Z,63.17
2019-02-24T23:27:52.796Z,63.45
2019-02-24T23:30:21.484Z,63.90
2019-02-24T23:32:50.151Z,63.86
2019-02-24T23:35:18.835Z,63.54
2019-02-24T23:37:47.520Z,63.23
2019-02-24T23:40:16.235Z,63.99
2019-02-24T23:42:44.934Z,63.42
2019-02-24T23:45:13.719Z,63.16
2019-02-24T23:47:42.396Z,62.92
2019-02-24T23:50:12.389Z,62.47
2019-02-24T23:52:41.061Z,62.02
2019-02-24T23:55:10.937Z,62.07
2019-02-24T23:57:39.628Z,62.30
